sensor_id;sensor_type;location;lat;lon;timestamp;P1;durP1;ratioP1;P2;durP2;ratioP2
1785;SDS011;890;48.158;11.540;2024-03-29T00:00:42;2.90;;;1.30;;
1785;SDS011;890;48.158;11.540;2024-03-29T00:03:09;1.40;;;1.07;;
1785;SDS011;890;48.158;11.540;2024-03-29T00:05:36;1.00;;;0.90;;
1785;SDS011;890;48.158;11.540;2024-03-29T00:08:02;1.37;;;1.20;;
1785;SDS011;890;48.158;11.540;2024-03-29T00:10:29;1.30;;;0.90;;
1785;SDS011;890;48.158;11.540;2024-03-29T00:12:54;1.20;;;1.10;;
1785;SDS011;890;48.158;11.540;2024-03-29T00:15:20;1.10;;;0.90;;
1785;SDS011;890;48.158;11.540;2024-03-29T00:17:46;1.07;;;0.97;;
1785;SDS011;890;48.158;11.540;2024-03-29T00:20:12;1.43;;;1.00;;
1785;SDS011;890;48.158;11.540;2024-03-29T00:22:37;1.70;;;1.20;;
1785;SDS011;890;48.158;11.540;2024-03-29T00:25:03;1.80;;;1.47;;
1785;SDS011;890;48.158;11.540;2024-03-29T00:27:30;3.30;;;1.77;;
1785;SDS011;890;48.158;11.540;2024-03-29T00:29:55;1.23;;;1.13;;
1785;SDS011;890;48.158;11.540;2024-03-29T00:32:21;1.57;;;1.10;;
1785;SDS011;890;48.158;11.540;2024-03-29T00:34:49;1.73;;;1.00;;
1785;SDS011;890;48.158;11.540;2024-03-29T00:37:15;1.17;;;0.97;;
1785;SDS011;890;48.158;11.540;2024-03-29T00:39:42;1.13;;;0.90;;
1785;SDS011;890;48.158;11.540;2024-03-29T00:42:08;1.70;;;1.20;;
1785;SDS011;890;48.158;11.540;2024-03-29T00:44:35;2.00;;;1.40;;
1785;SDS011;890;48.158;11.540;2024-03-29T00:47:03;2.20;;;1.40;;
1785;SDS011;890;48.158;11.540;2024-03-29T00:49:29;1.10;;;0.90;;
1785;SDS011;890;48.158;11.540;2024-03-29T00:51:55;1.50;;;1.17;;
1785;SDS011;890;48.158;11.540;2024-03-29T00:54:20;1.40;;;1.10;;
1785;SDS011;890;48.158;11.540;2024-03-29T00:56:48;2.20;;;1.07;;
1785;SDS011;890;48.158;11.540;2024-03-29T00:59:14;1.00;;;0.90;;
1785;SDS011;890;48.158;11.540;2024-03-29T01:01:40;1.93;;;1.07;;
1785;SDS011;890;48.158;11.540;2024-03-29T01:04:06;1.43;;;1.00;;
1785;SDS011;890;48.158;11.540;2024-03-29T01:06:32;1.10;;;0.90;;
1785;SDS011;890;48.158;11.540;2024-03-29T01:08:58;1.33;;;1.00;;
1785;SDS011;890;48.158;11.540;2024-03-29T01:11:25;1.00;;;0.90;;
1785;SDS011;890;48.158;11.540;2024-03-29T01:13:51;1.40;;;1.10;;
1785;SDS011;890;48.158;11.540;2024-03-29T01:16:18;1.37;;;1.17;;
1785;SDS011;890;48.158;11.540;2024-03-29T01:18:44;1.27;;;0.90;;
1785;SDS011;890;48.158;11.540;2024-03-29T01:21:09;1.23;;;1.10;;
1785;SDS011;890;48.158;11.540;2024-03-29T01:23:35;1.53;;;1.00;;
1785;SDS011;890;48.158;11.540;2024-03-29T01:26:02;1.63;;;1.13;;
1785;SDS011;890;48.158;11.540;2024-03-29T01:28:29;1.10;;;0.97;;
1785;SDS011;890;48.158;11.540;2024-03-29T01:30:55;1.50;;;1.00;;
1785;SDS011;890;48.158;11.540;2024-03-29T01:33:21;1.03;;;0.93;;
1785;SDS011;890;48.158;11.540;2024-03-29T01:35:47;1.27;;;0.90;;
1785;SDS011;890;48.158;11.540;2024-03-29T01:38:14;1.10;;;0.90;;
1785;SDS011;890;48.158;11.540;2024-03-29T01:40:40;1.10;;;0.80;;
1785;SDS011;890;48.158;11.540;2024-03-29T01:43:06;1.13;;;1.03;;
1785;SDS011;890;48.158;11.540;2024-03-29T01:45:34;1.27;;;0.87;;
1785;SDS011;890;48.158;11.540;2024-03-29T01:48:03;1.57;;;0.80;;
1785;SDS011;890;48.158;11.540;2024-03-29T01:50:32;0.87;;;0.60;;
1785;SDS011;890;48.158;11.540;2024-03-29T01:52:59;1.07;;;0.70;;
1785;SDS011;890;48.158;11.540;2024-03-29T01:55:25;0.77;;;0.70;;
1785;SDS011;890;48.158;11.540;2024-03-29T01:57:51;1.27;;;0.63;;
1785;SDS011;890;48.158;11.540;2024-03-29T02:00:18;0.80;;;0.70;;
1785;SDS011;890;48.158;11.540;2024-03-29T02:02:44;1.73;;;0.80;;
1785;SDS011;890;48.158;11.540;2024-03-29T02:05:10;1.70;;;0.90;;
1785;SDS011;890;48.158;11.540;2024-03-29T02:07:36;1.33;;;0.70;;
1785;SDS011;890;48.158;11.540;2024-03-29T02:10:03;0.90;;;0.73;;
1785;SDS011;890;48.158;11.540;2024-03-29T02:12:32;0.93;;;0.70;;
1785;SDS011;890;48.158;11.540;2024-03-29T02:14:58;0.93;;;0.83;;
1785;SDS011;890;48.158;11.540;2024-03-29T02:17:24;1.07;;;0.63;;
1785;SDS011;890;48.158;11.540;2024-03-29T02:19:51;1.17;;;0.80;;
1785;SDS011;890;48.158;11.540;2024-03-29T02:22:16;1.20;;;0.90;;
1785;SDS011;890;48.158;11.540;2024-03-29T02:24:43;1.00;;;0.80;;
1785;SDS011;890;48.158;11.540;2024-03-29T02:27:09;1.93;;;0.90;;
1785;SDS011;890;48.158;11.540;2024-03-29T02:29:35;1.07;;;0.80;;
1785;SDS011;890;48.158;11.540;2024-03-29T02:32:04;1.17;;;0.90;;
1785;SDS011;890;48.158;11.540;2024-03-29T02:34:30;1.20;;;0.80;;
1785;SDS011;890;48.158;11.540;2024-03-29T02:36:56;1.10;;;0.80;;
1785;SDS011;890;48.158;11.540;2024-03-29T02:39:22;1.20;;;1.00;;
1785;SDS011;890;48.158;11.540;2024-03-29T02:41:48;1.00;;;0.70;;
1785;SDS011;890;48.158;11.540;2024-03-29T02:44:14;1.10;;;0.80;;
1785;SDS011;890;48.158;11.540;2024-03-29T02:46:41;2.50;;;0.83;;
1785;SDS011;890;48.158;11.540;2024-03-29T02:49:07;0.90;;;0.70;;
1785;SDS011;890;48.158;11.540;2024-03-29T02:51:34;0.97;;;0.70;;
1785;SDS011;890;48.158;11.540;2024-03-29T02:54:00;1.33;;;0.90;;
1785;SDS011;890;48.158;11.540;2024-03-29T02:56:25;1.00;;;0.90;;
1785;SDS011;890;48.158;11.540;2024-03-29T02:58:52;1.30;;;1.00;;
1785;SDS011;890;48.158;11.540;2024-03-29T03:01:18;1.47;;;0.87;;
1785;SDS011;890;48.158;11.540;2024-03-29T03:03:44;1.00;;;0.80;;
1785;SDS011;890;48.158;11.540;2024-03-29T03:06:10;1.37;;;0.90;;
1785;SDS011;890;48.158;11.540;2024-03-29T03:08:35;1.10;;;0.80;;
1785;SDS011;890;48.158;11.540;2024-03-29T03:11:19;1.40;;;0.93;;
1785;SDS011;890;48.158;11.540;2024-03-29T03:13:45;1.20;;;0.90;;
1785;SDS011;890;48.158;11.540;2024-03-29T03:16:11;0.80;;;0.80;;
1785;SDS011;890;48.158;11.540;2024-03-29T03:18:37;2.70;;;0.90;;
1785;SDS011;890;48.158;11.540;2024-03-29T03:21:02;1.23;;;1.13;;
1785;SDS011;890;48.158;11.540;2024-03-29T03:23:28;1.07;;;0.80;;
1785;SDS011;890;48.158;11.540;2024-03-29T03:25:54;1.50;;;1.00;;
1785;SDS011;890;48.158;11.540;2024-03-29T03:28:24;1.03;;;0.90;;
1785;SDS011;890;48.158;11.540;2024-03-29T03:30:50;1.23;;;1.00;;
1785;SDS011;890;48.158;11.540;2024-03-29T03:33:17;0.80;;;0.80;;
1785;SDS011;890;48.158;11.540;2024-03-29T03:35:43;1.30;;;0.93;;
1785;SDS011;890;48.158;11.540;2024-03-29T03:38:09;1.50;;;1.10;;
1785;SDS011;890;48.158;11.540;2024-03-29T03:40:36;1.00;;;0.90;;
1785;SDS011;890;48.158;11.540;2024-03-29T03:43:02;0.80;;;0.80;;
1785;SDS011;890;48.158;11.540;2024-03-29T03:45:29;1.57;;;1.10;;
1785;SDS011;890;48.158;11.540;2024-03-29T03:48:10;1.20;;;1.07;;
1785;SDS011;890;48.158;11.540;2024-03-29T03:50:39;1.00;;;0.90;;
1785;SDS011;890;48.158;11.540;2024-03-29T03:53:06;2.17;;;0.90;;
1785;SDS011;890;48.158;11.540;2024-03-29T03:55:35;1.00;;;0.90;;
1785;SDS011;890;48.158;11.540;2024-03-29T03:58:04;0.93;;;0.80;;
1785;SDS011;890;48.158;11.540;2024-03-29T04:00:30;1.30;;;1.00;;
1785;SDS011;890;48.158;11.540;2024-03-29T04:02:55;1.70;;;1.03;;
1785;SDS011;890;48.158;11.540;2024-03-29T04:05:24;1.70;;;0.90;;
1785;SDS011;890;48.158;11.540;2024-03-29T04:07:52;1.30;;;1.20;;
1785;SDS011;890;48.158;11.540;2024-03-29T04:10:18;2.27;;;1.20;;
1785;SDS011;890;48.158;11.540;2024-03-29T04:12:44;1.10;;;0.90;;
1785;SDS011;890;48.158;11.540;2024-03-29T04:15:09;1.10;;;1.00;;
1785;SDS011;890;48.158;11.540;2024-03-29T04:17:35;1.87;;;1.00;;
1785;SDS011;890;48.158;11.540;2024-03-29T04:20:01;1.20;;;1.10;;
1785;SDS011;890;48.158;11.540;2024-03-29T04:22:27;2.20;;;1.30;;
1785;SDS011;890;48.158;11.540;2024-03-29T04:24:54;1.57;;;1.33;;
1785;SDS011;890;48.158;11.540;2024-03-29T04:27:19;1.20;;;1.00;;
1785;SDS011;890;48.158;11.540;2024-03-29T04:29:45;1.40;;;1.30;;
1785;SDS011;890;48.158;11.540;2024-03-29T04:32:11;1.50;;;1.40;;
1785;SDS011;890;48.158;11.540;2024-03-29T04:34:36;1.60;;;1.30;;
1785;SDS011;890;48.158;11.540;2024-03-29T04:37:02;1.67;;;1.50;;
1785;SDS011;890;48.158;11.540;2024-03-29T04:39:28;1.23;;;1.10;;
1785;SDS011;890;48.158;11.540;2024-03-29T04:41:54;1.20;;;1.10;;
1785;SDS011;890;48.158;11.540;2024-03-29T04:44:27;1.20;;;1.10;;
1785;SDS011;890;48.158;11.540;2024-03-29T04:46:53;1.40;;;1.10;;
1785;SDS011;890;48.158;11.540;2024-03-29T04:49:21;1.40;;;1.30;;
1785;SDS011;890;48.158;11.540;2024-03-29T04:51:58;1.40;;;1.30;;
1785;SDS011;890;48.158;11.540;2024-03-29T04:54:24;1.40;;;1.30;;
1785;SDS011;890;48.158;11.540;2024-03-29T04:56:51;1.27;;;1.17;;
1785;SDS011;890;48.158;11.540;2024-03-29T04:59:17;1.60;;;1.50;;
1785;SDS011;890;48.158;11.540;2024-03-29T05:01:43;1.67;;;1.30;;
1785;SDS011;890;48.158;11.540;2024-03-29T05:04:11;1.60;;;1.50;;
1785;SDS011;890;48.158;11.540;2024-03-29T05:06:41;1.43;;;1.23;;
1785;SDS011;890;48.158;11.540;2024-03-29T05:09:07;2.00;;;1.60;;
1785;SDS011;890;48.158;11.540;2024-03-29T05:11:33;1.40;;;1.30;;
1785;SDS011;890;48.158;11.540;2024-03-29T05:13:59;1.40;;;1.30;;
1785;SDS011;890;48.158;11.540;2024-03-29T05:16:26;1.60;;;1.50;;
1785;SDS011;890;48.158;11.540;2024-03-29T05:18:52;1.50;;;1.40;;
1785;SDS011;890;48.158;11.540;2024-03-29T05:21:18;2.60;;;2.30;;
1785;SDS011;890;48.158;11.540;2024-03-29T05:23:44;2.60;;;1.73;;
1785;SDS011;890;48.158;11.540;2024-03-29T05:26:09;1.70;;;1.60;;
1785;SDS011;890;48.158;11.540;2024-03-29T05:28:35;1.50;;;1.40;;
1785;SDS011;890;48.158;11.540;2024-03-29T05:31:10;2.07;;;1.40;;
1785;SDS011;890;48.158;11.540;2024-03-29T05:33:39;1.90;;;1.70;;
1785;SDS011;890;48.158;11.540;2024-03-29T05:36:06;2.10;;;1.87;;
1785;SDS011;890;48.158;11.540;2024-03-29T05:38:33;2.00;;;1.80;;
1785;SDS011;890;48.158;11.540;2024-03-29T05:40:59;2.60;;;1.33;;
1785;SDS011;890;48.158;11.540;2024-03-29T05:43:25;2.00;;;1.80;;
1785;SDS011;890;48.158;11.540;2024-03-29T05:45:53;1.97;;;1.77;;
1785;SDS011;890;48.158;11.540;2024-03-29T05:48:19;1.97;;;1.67;;
1785;SDS011;890;48.158;11.540;2024-03-29T05:50:44;2.17;;;2.00;;
1785;SDS011;890;48.158;11.540;2024-03-29T05:53:10;1.90;;;1.80;;
1785;SDS011;890;48.158;11.540;2024-03-29T05:55:36;1.80;;;1.70;;
1785;SDS011;890;48.158;11.540;2024-03-29T05:58:02;2.07;;;1.87;;
1785;SDS011;890;48.158;11.540;2024-03-29T06:00:28;1.90;;;1.80;;
1785;SDS011;890;48.158;11.540;2024-03-29T06:02:54;1.77;;;1.50;;
1785;SDS011;890;48.158;11.540;2024-03-29T06:05:22;1.80;;;1.70;;
1785;SDS011;890;48.158;11.540;2024-03-29T06:07:48;1.63;;;1.50;;
1785;SDS011;890;48.158;11.540;2024-03-29T06:10:13;1.80;;;1.60;;
1785;SDS011;890;48.158;11.540;2024-03-29T06:12:39;2.60;;;1.90;;
1785;SDS011;890;48.158;11.540;2024-03-29T06:15:05;2.20;;;2.00;;
1785;SDS011;890;48.158;11.540;2024-03-29T06:17:50;1.80;;;1.70;;
1785;SDS011;890;48.158;11.540;2024-03-29T06:20:16;1.70;;;1.60;;
1785;SDS011;890;48.158;11.540;2024-03-29T06:22:42;1.67;;;1.50;;
1785;SDS011;890;48.158;11.540;2024-03-29T06:25:07;1.70;;;1.50;;
1785;SDS011;890;48.158;11.540;2024-03-29T06:27:34;2.10;;;1.90;;
1785;SDS011;890;48.158;11.540;2024-03-29T06:30:01;2.27;;;1.70;;
1785;SDS011;890;48.158;11.540;2024-03-29T06:32:29;2.23;;;1.70;;
1785;SDS011;890;48.158;11.540;2024-03-29T06:34:55;1.90;;;1.70;;
1785;SDS011;890;48.158;11.540;2024-03-29T06:37:21;2.50;;;1.87;;
1785;SDS011;890;48.158;11.540;2024-03-29T06:39:50;2.30;;;1.70;;
1785;SDS011;890;48.158;11.540;2024-03-29T06:42:16;2.13;;;1.60;;
1785;SDS011;890;48.158;11.540;2024-03-29T06:44:42;1.50;;;1.40;;
1785;SDS011;890;48.158;11.540;2024-03-29T06:47:08;1.50;;;1.40;;
1785;SDS011;890;48.158;11.540;2024-03-29T06:49:34;1.70;;;1.60;;
1785;SDS011;890;48.158;11.540;2024-03-29T06:52:00;1.63;;;1.50;;
1785;SDS011;890;48.158;11.540;2024-03-29T06:54:27;1.70;;;1.40;;
1785;SDS011;890;48.158;11.540;2024-03-29T06:56:53;1.60;;;1.20;;
1785;SDS011;890;48.158;11.540;2024-03-29T06:59:20;3.10;;;1.80;;
1785;SDS011;890;48.158;11.540;2024-03-29T07:01:46;1.53;;;1.43;;
1785;SDS011;890;48.158;11.540;2024-03-29T07:04:24;1.63;;;1.40;;
1785;SDS011;890;48.158;11.540;2024-03-29T07:06:50;2.43;;;1.57;;
1785;SDS011;890;48.158;11.540;2024-03-29T07:09:20;1.63;;;1.37;;
1785;SDS011;890;48.158;11.540;2024-03-29T07:11:47;1.27;;;1.17;;
1785;SDS011;890;48.158;11.540;2024-03-29T07:14:17;1.90;;;1.40;;
1785;SDS011;890;48.158;11.540;2024-03-29T07:16:44;1.30;;;0.97;;
1785;SDS011;890;48.158;11.540;2024-03-29T07:19:10;1.50;;;1.33;;
1785;SDS011;890;48.158;11.540;2024-03-29T07:21:38;1.47;;;1.37;;
1785;SDS011;890;48.158;11.540;2024-03-29T07:24:04;1.33;;;1.23;;
1785;SDS011;890;48.158;11.540;2024-03-29T07:26:31;3.47;;;1.20;;
1785;SDS011;890;48.158;11.540;2024-03-29T07:28:57;1.50;;;1.30;;
1785;SDS011;890;48.158;11.540;2024-03-29T07:31:23;1.20;;;1.10;;
1785;SDS011;890;48.158;11.540;2024-03-29T07:33:48;2.13;;;1.40;;
1785;SDS011;890;48.158;11.540;2024-03-29T07:36:14;1.40;;;1.27;;
1785;SDS011;890;48.158;11.540;2024-03-29T07:38:41;1.57;;;1.30;;
1785;SDS011;890;48.158;11.540;2024-03-29T07:41:09;1.37;;;1.10;;
1785;SDS011;890;48.158;11.540;2024-03-29T07:43:38;1.40;;;1.30;;
1785;SDS011;890;48.158;11.540;2024-03-29T07:46:05;1.90;;;1.10;;
1785;SDS011;890;48.158;11.540;2024-03-29T07:48:34;1.10;;;0.90;;
1785;SDS011;890;48.158;11.540;2024-03-29T07:51:00;1.40;;;1.07;;
1785;SDS011;890;48.158;11.540;2024-03-29T07:53:26;1.77;;;1.30;;
1785;SDS011;890;48.158;11.540;2024-03-29T07:55:52;2.07;;;1.40;;
1785;SDS011;890;48.158;11.540;2024-03-29T07:58:17;1.30;;;1.00;;
1785;SDS011;890;48.158;11.540;2024-03-29T08:00:43;1.40;;;1.03;;
1785;SDS011;890;48.158;11.540;2024-03-29T08:03:09;1.20;;;0.80;;
1785;SDS011;890;48.158;11.540;2024-03-29T08:05:35;1.30;;;0.93;;
1785;SDS011;890;48.158;11.540;2024-03-29T08:08:01;0.87;;;0.70;;
1785;SDS011;890;48.158;11.540;2024-03-29T08:10:28;1.20;;;0.80;;
1785;SDS011;890;48.158;11.540;2024-03-29T08:12:54;1.40;;;1.00;;
1785;SDS011;890;48.158;11.540;2024-03-29T08:15:20;1.23;;;1.00;;
1785;SDS011;890;48.158;11.540;2024-03-29T08:17:46;1.73;;;1.00;;
1785;SDS011;890;48.158;11.540;2024-03-29T08:20:12;2.17;;;0.90;;
1785;SDS011;890;48.158;11.540;2024-03-29T08:22:37;1.37;;;1.17;;
1785;SDS011;890;48.158;11.540;2024-03-29T08:25:03;1.83;;;0.90;;
1785;SDS011;890;48.158;11.540;2024-03-29T08:27:29;1.80;;;0.87;;
1785;SDS011;890;48.158;11.540;2024-03-29T08:29:55;1.47;;;0.90;;
1785;SDS011;890;48.158;11.540;2024-03-29T08:32:20;2.70;;;1.10;;
1785;SDS011;890;48.158;11.540;2024-03-29T08:34:46;1.53;;;0.80;;
1785;SDS011;890;48.158;11.540;2024-03-29T08:37:12;2.40;;;1.10;;
1785;SDS011;890;48.158;11.540;2024-03-29T08:39:38;0.80;;;0.70;;
1785;SDS011;890;48.158;11.540;2024-03-29T08:42:04;1.17;;;0.90;;
1785;SDS011;890;48.158;11.540;2024-03-29T08:44:31;1.80;;;1.00;;
1785;SDS011;890;48.158;11.540;2024-03-29T08:46:57;2.20;;;1.03;;
1785;SDS011;890;48.158;11.540;2024-03-29T08:49:24;1.40;;;0.90;;
1785;SDS011;890;48.158;11.540;2024-03-29T08:51:50;3.43;;;0.90;;
1785;SDS011;890;48.158;11.540;2024-03-29T08:54:15;2.47;;;0.90;;
1785;SDS011;890;48.158;11.540;2024-03-29T08:56:41;1.00;;;0.70;;
1785;SDS011;890;48.158;11.540;2024-03-29T08:59:07;1.00;;;0.80;;
1785;SDS011;890;48.158;11.540;2024-03-29T09:01:36;2.60;;;1.20;;
1785;SDS011;890;48.158;11.540;2024-03-29T09:04:03;1.00;;;0.80;;
1785;SDS011;890;48.158;11.540;2024-03-29T09:06:32;1.67;;;0.70;;
1785;SDS011;890;48.158;11.540;2024-03-29T09:08:58;2.00;;;0.90;;
1785;SDS011;890;48.158;11.540;2024-03-29T09:11:24;1.30;;;1.00;;
1785;SDS011;890;48.158;11.540;2024-03-29T09:13:49;2.27;;;0.90;;
1785;SDS011;890;48.158;11.540;2024-03-29T09:16:15;1.90;;;0.90;;
1785;SDS011;890;48.158;11.540;2024-03-29T09:18:41;1.90;;;0.90;;
1785;SDS011;890;48.158;11.540;2024-03-29T09:21:07;1.57;;;0.80;;
1785;SDS011;890;48.158;11.540;2024-03-29T09:23:34;1.00;;;0.80;;
1785;SDS011;890;48.158;11.540;2024-03-29T09:26:00;0.90;;;0.60;;
1785;SDS011;890;48.158;11.540;2024-03-29T09:28:29;2.60;;;0.70;;
1785;SDS011;890;48.158;11.540;2024-03-29T09:30:57;1.37;;;0.80;;
1785;SDS011;890;48.158;11.540;2024-03-29T09:33:24;1.40;;;1.13;;
1785;SDS011;890;48.158;11.540;2024-03-29T09:35:49;1.27;;;0.80;;
1785;SDS011;890;48.158;11.540;2024-03-29T09:38:16;0.97;;;0.70;;
1785;SDS011;890;48.158;11.540;2024-03-29T09:40:41;1.20;;;0.90;;
1785;SDS011;890;48.158;11.540;2024-03-29T09:43:08;1.00;;;0.80;;
1785;SDS011;890;48.158;11.540;2024-03-29T09:45:36;1.33;;;0.90;;
1785;SDS011;890;48.158;11.540;2024-03-29T09:48:03;1.20;;;1.00;;
1785;SDS011;890;48.158;11.540;2024-03-29T09:50:30;1.00;;;0.80;;
1785;SDS011;890;48.158;11.540;2024-03-29T09:52:57;0.83;;;0.60;;
1785;SDS011;890;48.158;11.540;2024-03-29T09:55:24;1.17;;;0.90;;
1785;SDS011;890;48.158;11.540;2024-03-29T09:57:50;1.10;;;0.73;;
1785;SDS011;890;48.158;11.540;2024-03-29T10:00:17;1.20;;;0.70;;
1785;SDS011;890;48.158;11.540;2024-03-29T10:02:43;2.23;;;0.80;;
1785;SDS011;890;48.158;11.540;2024-03-29T10:05:09;2.47;;;0.77;;
1785;SDS011;890;48.158;11.540;2024-03-29T10:07:37;1.20;;;0.80;;
1785;SDS011;890;48.158;11.540;2024-03-29T10:10:05;1.83;;;0.90;;
1785;SDS011;890;48.158;11.540;2024-03-29T10:12:31;0.90;;;0.70;;
1785;SDS011;890;48.158;11.540;2024-03-29T10:14:56;2.10;;;0.80;;
1785;SDS011;890;48.158;11.540;2024-03-29T10:17:33;1.10;;;0.87;;
1785;SDS011;890;48.158;11.540;2024-03-29T10:20:02;1.00;;;0.60;;
1785;SDS011;890;48.158;11.540;2024-03-29T10:22:28;1.20;;;0.70;;
1785;SDS011;890;48.158;11.540;2024-03-29T10:24:56;1.77;;;0.70;;
1785;SDS011;890;48.158;11.540;2024-03-29T10:27:26;1.50;;;0.90;;
1785;SDS011;890;48.158;11.540;2024-03-29T10:29:53;0.93;;;0.67;;
1785;SDS011;890;48.158;11.540;2024-03-29T10:32:18;1.93;;;0.73;;
1785;SDS011;890;48.158;11.540;2024-03-29T10:34:44;1.70;;;0.80;;
1785;SDS011;890;48.158;11.540;2024-03-29T10:37:10;0.80;;;0.60;;
1785;SDS011;890;48.158;11.540;2024-03-29T10:39:36;1.20;;;0.60;;
1785;SDS011;890;48.158;11.540;2024-03-29T10:42:07;0.80;;;0.70;;
1785;SDS011;890;48.158;11.540;2024-03-29T10:44:36;0.80;;;0.70;;
1785;SDS011;890;48.158;11.540;2024-03-29T10:47:04;2.83;;;0.90;;
1785;SDS011;890;48.158;11.540;2024-03-29T10:49:31;2.23;;;0.83;;
1785;SDS011;890;48.158;11.540;2024-03-29T10:51:59;1.63;;;0.70;;
1785;SDS011;890;48.158;11.540;2024-03-29T10:54:27;1.30;;;0.70;;
1785;SDS011;890;48.158;11.540;2024-03-29T10:57:01;1.90;;;0.77;;
1785;SDS011;890;48.158;11.540;2024-03-29T10:59:37;1.30;;;0.80;;
1785;SDS011;890;48.158;11.540;2024-03-29T11:02:12;1.53;;;0.60;;
1785;SDS011;890;48.158;11.540;2024-03-29T11:04:43;1.23;;;0.70;;
1785;SDS011;890;48.158;11.540;2024-03-29T11:07:15;1.60;;;1.00;;
1785;SDS011;890;48.158;11.540;2024-03-29T11:09:50;1.40;;;0.87;;
1785;SDS011;890;48.158;11.540;2024-03-29T11:12:22;2.20;;;0.70;;
1785;SDS011;890;48.158;11.540;2024-03-29T11:14:52;0.90;;;0.70;;
1785;SDS011;890;48.158;11.540;2024-03-29T11:17:28;0.97;;;0.63;;
1785;SDS011;890;48.158;11.540;2024-03-29T11:19:55;2.60;;;1.17;;
1785;SDS011;890;48.158;11.540;2024-03-29T11:22:23;1.53;;;0.80;;
1785;SDS011;890;48.158;11.540;2024-03-29T11:24:53;1.57;;;0.63;;
1785;SDS011;890;48.158;11.540;2024-03-29T11:27:22;0.80;;;0.60;;
1785;SDS011;890;48.158;11.540;2024-03-29T11:29:49;1.07;;;0.63;;
1785;SDS011;890;48.158;11.540;2024-03-29T11:32:15;1.63;;;0.90;;
1785;SDS011;890;48.158;11.540;2024-03-29T11:34:59;0.90;;;0.60;;
1785;SDS011;890;48.158;11.540;2024-03-29T11:37:29;0.80;;;0.60;;
1785;SDS011;890;48.158;11.540;2024-03-29T11:39:58;1.60;;;0.87;;
1785;SDS011;890;48.158;11.540;2024-03-29T11:45:24;1.00;;;0.60;;
1785;SDS011;890;48.158;11.540;2024-03-29T11:47:55;1.17;;;0.77;;
1785;SDS011;890;48.158;11.540;2024-03-29T11:50:27;1.40;;;0.90;;
1785;SDS011;890;48.158;11.540;2024-03-29T11:52:53;1.37;;;0.73;;
1785;SDS011;890;48.158;11.540;2024-03-29T11:55:18;1.53;;;0.80;;
1785;SDS011;890;48.158;11.540;2024-03-29T11:57:44;0.80;;;0.60;;
1785;SDS011;890;48.158;11.540;2024-03-29T12:00:10;1.00;;;0.77;;
1785;SDS011;890;48.158;11.540;2024-03-29T12:02:36;1.03;;;0.67;;
1785;SDS011;890;48.158;11.540;2024-03-29T12:05:07;1.47;;;0.67;;
1785;SDS011;890;48.158;11.540;2024-03-29T12:07:33;0.90;;;0.67;;
1785;SDS011;890;48.158;11.540;2024-03-29T12:09:59;1.37;;;0.83;;
1785;SDS011;890;48.158;11.540;2024-03-29T12:12:25;1.60;;;0.80;;
1785;SDS011;890;48.158;11.540;2024-03-29T12:14:50;0.93;;;0.70;;
1785;SDS011;890;48.158;11.540;2024-03-29T12:17:16;0.80;;;0.70;;
1785;SDS011;890;48.158;11.540;2024-03-29T12:19:42;1.20;;;0.70;;
1785;SDS011;890;48.158;11.540;2024-03-29T12:22:09;1.47;;;0.80;;
1785;SDS011;890;48.158;11.540;2024-03-29T12:24:35;0.63;;;0.50;;
1785;SDS011;890;48.158;11.540;2024-03-29T12:27:01;0.90;;;0.70;;
1785;SDS011;890;48.158;11.540;2024-03-29T12:29:27;1.07;;;0.80;;
1785;SDS011;890;48.158;11.540;2024-03-29T12:31:59;1.70;;;0.70;;
1785;SDS011;890;48.158;11.540;2024-03-29T12:34:26;1.73;;;0.70;;
1785;SDS011;890;48.158;11.540;2024-03-29T12:36:51;1.50;;;1.13;;
1785;SDS011;890;48.158;11.540;2024-03-29T12:39:17;0.90;;;0.70;;
1785;SDS011;890;48.158;11.540;2024-03-29T12:41:46;1.10;;;0.83;;
1785;SDS011;890;48.158;11.540;2024-03-29T12:44:12;2.27;;;1.97;;
1785;SDS011;890;48.158;11.540;2024-03-29T12:46:37;2.20;;;1.80;;
1785;SDS011;890;48.158;11.540;2024-03-29T12:49:03;2.53;;;1.00;;
1785;SDS011;890;48.158;11.540;2024-03-29T12:51:29;1.37;;;0.90;;
1785;SDS011;890;48.158;11.540;2024-03-29T12:53:55;0.93;;;0.60;;
1785;SDS011;890;48.158;11.540;2024-03-29T12:56:25;1.47;;;0.53;;
1785;SDS011;890;48.158;11.540;2024-03-29T12:58:51;1.40;;;0.87;;
1785;SDS011;890;48.158;11.540;2024-03-29T13:01:17;1.00;;;0.70;;
1785;SDS011;890;48.158;11.540;2024-03-29T13:03:43;1.00;;;0.90;;
1785;SDS011;890;48.158;11.540;2024-03-29T13:06:09;0.70;;;0.50;;
1785;SDS011;890;48.158;11.540;2024-03-29T13:08:35;0.70;;;0.50;;
1785;SDS011;890;48.158;11.540;2024-03-29T13:11:01;0.90;;;0.63;;
1785;SDS011;890;48.158;11.540;2024-03-29T13:13:27;1.80;;;0.60;;
1785;SDS011;890;48.158;11.540;2024-03-29T13:15:53;0.80;;;0.60;;
1785;SDS011;890;48.158;11.540;2024-03-29T13:18:19;0.70;;;0.50;;
1785;SDS011;890;48.158;11.540;2024-03-29T13:20:44;0.73;;;0.60;;
1785;SDS011;890;48.158;11.540;2024-03-29T13:23:10;0.80;;;0.57;;
1785;SDS011;890;48.158;11.540;2024-03-29T13:25:37;0.87;;;0.50;;
1785;SDS011;890;48.158;11.540;2024-03-29T13:28:04;2.33;;;0.60;;
1785;SDS011;890;48.158;11.540;2024-03-29T13:30:32;0.90;;;0.50;;
1785;SDS011;890;48.158;11.540;2024-03-29T13:32:58;0.80;;;0.50;;
1785;SDS011;890;48.158;11.540;2024-03-29T13:35:23;0.70;;;0.50;;
1785;SDS011;890;48.158;11.540;2024-03-29T13:37:50;0.80;;;0.60;;
1785;SDS011;890;48.158;11.540;2024-03-29T13:40:20;0.87;;;0.60;;
1785;SDS011;890;48.158;11.540;2024-03-29T13:42:47;0.70;;;0.50;;
1785;SDS011;890;48.158;11.540;2024-03-29T13:45:14;0.70;;;0.50;;
1785;SDS011;890;48.158;11.540;2024-03-29T13:47:41;1.37;;;0.53;;
1785;SDS011;890;48.158;11.540;2024-03-29T13:50:08;0.77;;;0.57;;
1785;SDS011;890;48.158;11.540;2024-03-29T13:52:35;0.80;;;0.60;;
1785;SDS011;890;48.158;11.540;2024-03-29T13:55:02;0.80;;;0.43;;
1785;SDS011;890;48.158;11.540;2024-03-29T13:57:29;0.77;;;0.60;;
1785;SDS011;890;48.158;11.540;2024-03-29T13:59:56;0.60;;;0.50;;
1785;SDS011;890;48.158;11.540;2024-03-29T14:02:23;0.70;;;0.50;;
1785;SDS011;890;48.158;11.540;2024-03-29T14:04:51;0.70;;;0.60;;
1785;SDS011;890;48.158;11.540;2024-03-29T14:07:17;0.70;;;0.50;;
1785;SDS011;890;48.158;11.540;2024-03-29T14:09:43;0.80;;;0.50;;
1785;SDS011;890;48.158;11.540;2024-03-29T14:12:10;0.60;;;0.43;;
1785;SDS011;890;48.158;11.540;2024-03-29T14:14:36;0.70;;;0.50;;
1785;SDS011;890;48.158;11.540;2024-03-29T14:17:02;0.73;;;0.50;;
1785;SDS011;890;48.158;11.540;2024-03-29T14:19:33;1.43;;;0.50;;
1785;SDS011;890;48.158;11.540;2024-03-29T14:22:00;0.70;;;0.50;;
1785;SDS011;890;48.158;11.540;2024-03-29T14:24:26;0.73;;;0.50;;
1785;SDS011;890;48.158;11.540;2024-03-29T14:26:53;0.80;;;0.60;;
1785;SDS011;890;48.158;11.540;2024-03-29T14:29:19;0.77;;;0.50;;
1785;SDS011;890;48.158;11.540;2024-03-29T14:31:49;1.23;;;0.57;;
1785;SDS011;890;48.158;11.540;2024-03-29T14:34:15;1.10;;;0.80;;
1785;SDS011;890;48.158;11.540;2024-03-29T14:36:42;1.10;;;0.60;;
1785;SDS011;890;48.158;11.540;2024-03-29T14:39:09;0.70;;;0.50;;
1785;SDS011;890;48.158;11.540;2024-03-29T14:41:38;0.70;;;0.50;;
1785;SDS011;890;48.158;11.540;2024-03-29T14:44:04;1.20;;;0.57;;
1785;SDS011;890;48.158;11.540;2024-03-29T14:46:34;0.70;;;0.50;;
1785;SDS011;890;48.158;11.540;2024-03-29T14:49:00;0.73;;;0.60;;
1785;SDS011;890;48.158;11.540;2024-03-29T14:51:30;1.47;;;0.60;;
1785;SDS011;890;48.158;11.540;2024-03-29T14:53:59;0.80;;;0.50;;
1785;SDS011;890;48.158;11.540;2024-03-29T14:56:26;0.80;;;0.60;;
1785;SDS011;890;48.158;11.540;2024-03-29T14:58:55;0.83;;;0.40;;
1785;SDS011;890;48.158;11.540;2024-03-29T15:01:22;1.10;;;0.70;;
1785;SDS011;890;48.158;11.540;2024-03-29T15:03:47;0.77;;;0.60;;
1785;SDS011;890;48.158;11.540;2024-03-29T15:06:15;1.00;;;0.50;;
1785;SDS011;890;48.158;11.540;2024-03-29T15:08:41;0.80;;;0.50;;
1785;SDS011;890;48.158;11.540;2024-03-29T15:11:06;0.70;;;0.50;;
1785;SDS011;890;48.158;11.540;2024-03-29T15:13:32;0.83;;;0.50;;
1785;SDS011;890;48.158;11.540;2024-03-29T15:16:01;0.77;;;0.50;;